Time;durP1;ratioP1;P1;durP2;ratioP2;P2;SDS_P1;SDS_P2;PMS_P1;PMS_P2;Temp;Humidity;BMP_temperature;BMP_pressure;BME280_temperature;BME280_humidity;BME280_pressure;Samples;Min_cycle;Max_cycle;Signal;HPM_P1;HPM_P2
2022/01/19 00:01:07;;;;;;;4.40;1.95;;;8.90;59.50;;;7.38;64.75;102907.41;8249527;28;20125;-82
2022/01/19 00:05:28;;;;;;;4.10;1.83;;;9.00;59.50;;;7.38;64.96;102900.47;8257385;28;20468;-82
2022/01/19 00:09:50;;;;;;;5.28;1.83;;;9.00;59.50;;;7.37;64.89;102906.53;8262788;28;20162;-82
2022/01/19 00:14:12;;;;;;;2.90;1.88;;;8.90;59.40;;;7.36;64.46;102894.41;8276445;28;20124;-82
2022/01/19 00:18:34;;;;;;;1.95;1.80;;;9.00;59.40;;;7.30;64.76;102884.06;8275343;28;20579;-82
2022/01/19 00:22:55;;;;;;;3.63;1.95;;;9.00;59.30;;;7.38;64.63;102884.00;8249283;28;20121;-82
2022/01/19 00:27:17;;;;;;;3.67;2.20;;;9.00;59.30;;;7.32;64.78;102877.13;8247272;28;20042;-82
2022/01/19 00:31:39;;;;;;;4.35;2.63;;;9.00;59.30;;;7.36;64.52;102875.34;8278065;28;20117;-82
2022/01/19 00:36:00;;;;;;;4.38;3.15;;;9.00;59.30;;;7.37;64.75;102871.88;8274943;28;20101;-82
2022/01/19 00:40:22;;;;;;;4.82;2.10;;;9.00;59.20;;;7.28;65.02;102852.00;8266536;28;20121;-81
2022/01/19 00:44:44;;;;;;;4.70;2.42;;;9.00;59.20;;;7.32;64.85;102867.56;8262150;28;20034;-82
2022/01/19 00:49:06;;;;;;;2.17;1.70;;;9.00;59.20;;;7.30;64.48;102861.53;8237567;28;20117;-82
2022/01/19 00:53:28;;;;;;;2.22;1.98;;;9.00;59.30;;;7.22;65.03;102846.88;8280144;28;20118;-82
2022/01/19 00:57:50;;;;;;;3.88;2.00;;;9.00;59.30;;;7.29;64.54;102869.31;8275559;28;20133;-82
2022/01/19 01:02:12;;;;;;;4.68;2.10;;;9.00;59.30;;;7.23;64.50;102844.22;8252294;28;20134;-81
2022/01/19 01:06:34;;;;;;;4.38;2.08;;;9.00;59.30;;;7.38;64.45;102877.06;8244956;28;20030;-82
2022/01/19 01:10:58;;;;;;;2.40;1.85;;;9.00;59.30;;;7.29;64.41;102853.72;8264361;28;20113;-82
2022/01/19 01:15:46;;;;;;;2.65;1.67;;;9.00;59.30;;;7.36;65.00;102868.41;8258971;28;20130;-82
2022/01/19 01:20:11;;;;;;;3.95;2.20;;;9.00;59.20;;;7.24;64.49;102845.13;8252916;28;20120;-81
2022/01/19 01:24:33;;;;;;;4.38;2.42;;;9.00;59.20;;;7.42;64.48;102859.69;8238497;28;20127;-82
2022/01/19 01:28:54;;;;;;;3.55;2.35;;;9.00;59.20;;;7.21;64.51;102813.94;8273877;28;20117;-82
2022/01/19 01:33:16;;;;;;;4.03;2.55;;;9.00;59.20;;;7.43;64.58;102825.91;8252564;28;20109;-82
2022/01/19 01:37:38;;;;;;;7.35;2.92;;;8.90;59.10;;;7.42;64.44;102820.72;8263441;28;20554;-81
2022/01/19 01:42:00;;;;;;;5.18;2.88;;;9.00;59.10;;;7.34;64.96;102799.97;8248087;28;20121;-82
2022/01/19 01:46:46;;;;;;;6.13;3.50;;;9.00;59.10;;;7.41;64.34;102798.22;8241382;28;20044;-81
2022/01/19 01:56:16;;;;;;;5.05;3.33;;;9.00;59.10;;;7.38;64.99;102752.31;8282301;28;20113;-81
2022/01/19 02:00:38;;;;;;;5.07;3.47;;;9.00;59.10;;;7.31;64.92;102724.66;8275405;28;20485;-81
2022/01/19 02:05:00;;;;;;;6.00;3.65;;;9.00;59.10;;;7.40;64.52;102736.69;8239375;28;20103;-81
2022/01/19 02:09:25;;;;;;;6.28;3.95;;;9.00;59.10;;;7.20;64.66;102710.88;8249414;28;20033;-81
2022/01/19 02:23:39;;;;;;;5.82;3.53;;;9.00;59.10;;;7.34;64.18;102722.00;8237200;28;20117;-81
2022/01/19 02:40:11;;;;;;;7.28;3.78;;;9.00;59.00;;;7.23;64.84;102672.75;8261326;28;20117;-81
2022/01/19 02:42:39;;;;;;;6.82;3.80;;;9.00;59.00;;;7.30;64.43;102676.16;8268578;28;20704;-81
2022/01/19 02:51:38;;;;;;;5.10;3.40;;;9.20;59.10;;;7.40;64.78;102683.00;8282012;28;20101;-81
2022/01/19 02:56:06;;;;;;;4.93;3.72;;;9.00;59.10;;;7.32;64.35;102667.47;8268693;28;20117;-81
2022/01/19 03:09:50;;;;;;;6.72;4.38;;;9.00;59.00;;;7.37;64.73;102650.94;8273268;28;20656;-81
2022/01/19 03:14:12;;;;;;;6.80;4.00;;;9.00;59.00;;;7.36;64.48;102647.50;8237122;28;20141;-81
2022/01/19 03:18:34;;;;;;;3.80;3.33;;;9.00;59.00;;;7.36;64.73;102637.09;8256690;28;20440;-81
2022/01/19 03:23:03;;;;;;;7.03;3.25;;;9.00;59.00;;;7.29;64.66;102630.25;8265274;28;20113;-81
2022/01/19 03:27:25;;;;;;;3.53;3.08;;;8.80;58.90;;;7.26;64.84;102615.56;8268260;28;20517;-81
2022/01/19 03:31:49;;;;;;;6.57;3.95;;;9.00;59.00;;;7.29;64.67;102604.25;8271756;28;20113;-81
2022/01/19 03:36:11;;;;;;;6.28;3.85;;;8.90;59.00;;;7.32;64.71;102604.25;8271981;28;20132;-81
2022/01/19 03:40:33;;;;;;;5.88;4.60;;;9.00;59.00;;;7.34;64.42;102599.00;8243456;28;20125;-81
2022/01/19 03:44:54;;;;;;;7.05;4.38;;;9.00;59.00;;;7.27;64.41;102582.66;8256128;28;20496;-81
2022/01/19 03:49:23;;;;;;;9.07;4.22;;;8.90;58.90;;;7.31;64.43;102584.31;8268757;28;20121;-81
2022/01/19 03:53:46;;;;;;;5.90;3.90;;;8.90;58.90;;;7.34;64.07;102579.06;8243362;28;20124;-81
2022/01/19 03:58:07;;;;;;;7.28;4.20;;;8.90;58.90;;;7.14;64.20;102550.75;8246325;28;20038;-81
2022/01/19 04:02:29;;;;;;;5.43;4.13;;;8.80;58.90;;;7.34;64.39;102571.28;8264264;28;20570;-80
2022/01/19 04:11:28;;;;;;;6.25;3.35;;;8.90;58.90;;;7.30;64.22;102534.09;8281816;28;20547;-81
2022/01/19 04:15:52;;;;;;;8.98;3.85;;;8.90;58.90;;;7.36;64.16;102547.88;8255622;28;20555;-80
2022/01/19 04:20:14;;;;;;;6.47;3.88;;;8.90;58.90;;;7.33;64.63;102533.19;8255949;28;20567;-81
2022/01/19 04:24:37;;;;;;;7.38;4.22;;;9.00;59.00;;;7.29;64.28;102528.91;8280929;28;20104;-81
2022/01/19 04:29:00;;;;;;;7.60;3.80;;;8.90;58.80;;;7.25;64.15;102520.28;8255849;28;20105;-80
2022/01/19 04:33:23;;;;;;;9.68;4.15;;;8.90;58.80;;;7.16;64.69;102498.78;8265537;28;20109;-81
2022/01/19 05:01:43;;;;;;;7.07;3.42;;;8.80;58.80;;;7.14;64.82;102482.34;8280775;28;20558;-80
2022/01/19 05:06:25;;;;;;;6.13;3.13;;;8.80;58.90;;;7.18;64.66;102482.25;8293692;28;20503;-80
2022/01/19 05:15:11;;;;;;;5.68;3.05;;;8.70;58.80;;;7.11;64.56;102444.28;8263714;28;20132;-81
2022/01/19 05:19:33;;;;;;;6.57;3.55;;;8.80;58.80;;;7.19;64.59;102467.56;8271744;28;20118;-83
2022/01/19 05:23:55;;;;;;;4.97;3.08;;;8.90;58.90;;;7.19;64.65;102449.38;8281644;28;20457;-80
2022/01/19 05:28:17;;;;;;;3.80;2.88;;;8.80;58.80;;;7.04;64.16;102420.09;8260680;28;20043;-81
2022/01/19 05:32:38;;;;;;;3.28;2.85;;;8.70;58.70;;;7.27;64.47;102455.31;8252230;28;20112;-80
2022/01/19 05:37:01;;;;;;;3.83;2.97;;;8.90;58.80;;;7.17;64.44;102438.13;8275038;28;20030;-80
2022/01/19 05:41:37;;;;;;;3.83;3.00;;;8.80;58.70;;;7.14;64.81;102420.84;8275216;28;20116;-80
2022/01/19 05:46:01;;;;;;;4.50;3.30;;;8.90;58.70;;;7.17;64.38;102428.59;8280427;28;20051;-80
2022/01/19 05:50:24;;;;;;;4.28;2.70;;;8.80;58.70;;;7.16;64.48;102418.25;8253233;28;20109;-84
2022/01/19 05:54:53;;;;;;;4.30;2.92;;;8.80;58.70;;;7.21;64.62;102429.41;8235842;28;20038;-80
2022/01/19 05:59:14;;;;;;;10.73;3.70;;;8.70;58.70;;;7.13;64.07;102400.94;8269917;28;20064;-80
2022/01/19 06:03:36;;;;;;;4.15;2.88;;;8.80;58.70;;;7.19;64.49;102407.81;8273822;28;20109;-80
2022/01/19 06:08:39;;;;;;;8.18;3.58;;;8.80;58.70;;;7.13;64.49;102394.88;8250255;28;20050;-80
2022/01/19 06:13:00;;;;;;;4.55;3.08;;;8.70;58.70;;;7.15;64.00;102393.97;8254994;28;20044;-80
2022/01/19 06:17:22;;;;;;;4.70;3.15;;;8.70;58.60;;;7.11;64.58;102391.47;8266308;28;20678;-80
2022/01/19 06:21:44;;;;;;;6.65;3.35;;;8.70;58.90;;;6.95;64.29;102363.09;8253253;28;20129;-81
2022/01/19 06:26:06;;;;;;;4.45;3.25;;;8.70;58.60;;;6.90;64.04;102356.25;8255160;28;20042;-80
2022/01/19 06:30:29;;;;;;;5.63;3.33;;;8.60;58.60;;;6.98;64.29;102363.03;8265979;28;20121;-80
2022/01/19 06:34:52;;;;;;;5.47;2.97;;;8.60;58.60;;;6.91;64.48;102343.22;8276710;28;20029;-80
2022/01/19 06:39:16;;;;;;;5.45;2.97;;;8.70;58.60;;;6.97;64.24;102343.16;8274432;28;20129;-80
2022/01/19 06:43:41;;;;;;;6.38;2.95;;;8.50;58.60;;;6.85;64.55;102327.72;8261374;28;20439;-80
2022/01/19 06:48:04;;;;;;;3.85;3.08;;;8.50;58.60;;;6.90;63.93;102333.72;8267857;28;20038;-81
2022/01/19 06:52:26;;;;;;;4.28;3.08;;;8.50;58.60;;;6.83;63.95;102317.38;8262783;28;20684;-82
2022/01/19 06:56:48;;;;;;;5.30;3.28;;;8.50;58.60;;;6.73;63.86;102289.84;8226971;28;20477;-81
2022/01/19 07:01:33;;;;;;;3.45;2.67;;;8.40;58.60;;;6.70;63.98;102276.00;8274238;28;20117;-81
2022/01/19 07:06:21;;;;;;;3.78;2.70;;;8.30;58.60;;;6.70;64.30;102274.31;8265182;28;20046;-81
2022/01/19 07:11:00;;;;;;;4.10;3.03;;;8.40;58.60;;;6.78;64.10;102282.84;8255058;28;20034;-81
2022/01/19 07:15:21;;;;;;;6.40;3.97;;;8.30;58.60;;;6.71;63.86;102263.03;8240493;28;20129;-81
2022/01/19 07:19:44;;;;;;;3.33;2.83;;;8.30;58.60;;;6.70;63.96;102260.44;8241891;28;20048;-81
2022/01/19 07:24:07;;;;;;;4.57;3.05;;;8.30;58.60;;;6.61;63.96;102249.31;8246277;28;20042;-81
2022/01/19 07:28:29;;;;;;;5.93;3.05;;;8.20;58.60;;;6.67;64.40;102252.69;8243051;28;20062;-79
2022/01/19 07:32:52;;;;;;;7.10;3.78;;;8.20;58.60;;;6.57;64.47;102229.47;8264257;28;20405;-81
2022/01/19 07:37:15;;;;;;;4.03;3.60;;;8.10;58.60;;;6.59;64.13;102230.31;8250796;28;20042;-80
2022/01/19 07:41:38;;;;;;;9.70;3.67;;;8.20;58.60;;;6.61;64.31;102225.09;8243940;28;20517;-79
2022/01/19 07:46:19;;;;;;;6.82;3.58;;;8.20;58.60;;;6.58;64.16;102214.75;8248124;28;20052;-80
2022/01/19 07:50:43;;;;;;;5.72;3.10;;;8.10;58.60;;;6.53;64.09;102207.03;8244187;28;20043;-81
2022/01/19 07:55:29;;;;;;;4.43;3.25;;;8.00;58.60;;;6.33;64.11;102173.59;8253570;28;20052;-83
2022/01/19 08:00:12;;;;;;;5.03;3.67;;;8.10;58.60;;;6.50;63.66;102193.25;8223532;28;20061;-83
2022/01/19 08:04:40;;;;;;;5.07;3.45;;;8.10;58.60;;;6.43;64.07;102193.34;8270593;28;20046;-82
2022/01/19 08:09:04;;;;;;;6.13;3.63;;;8.00;58.50;;;6.42;64.02;102190.75;8248342;28;20038;-81
2022/01/19 08:13:27;;;;;;;5.47;3.58;;;7.90;58.50;;;6.34;64.23;102174.44;8232253;28;20034;-82
2022/01/19 08:17:51;;;;;;;4.65;3.35;;;8.00;58.60;;;6.37;64.34;102182.19;8243970;28;20519;-81
2022/01/19 08:22:13;;;;;;;6.88;3.90;;;7.90;58.60;;;6.18;64.20;102164.31;8250385;28;20044;-82
2022/01/19 08:26:55;;;;;;;5.95;3.70;;;7.90;58.60;;;6.33;63.73;102171.00;8253558;28;20052;-82
2022/01/19 08:31:21;;;;;;;6.82;4.15;;;7.90;58.70;;;6.13;63.71;102134.09;8247201;28;20034;-82
2022/01/19 08:36:21;;;;;;;4.88;3.50;;;7.80;58.70;;;6.27;63.85;102157.28;8247211;28;20042;-82
2022/01/19 08:41:05;;;;;;;5.45;3.67;;;7.80;58.70;;;6.13;64.17;102123.72;8269430;28;20061;-86
2022/01/19 08:45:28;;;;;;;6.82;4.50;;;7.80;58.80;;;6.17;64.50;102126.25;8256565;28;20503;-87
2022/01/19 08:49:50;;;;;;;4.15;3.75;;;7.80;58.80;;;6.14;64.06;102102.13;8244179;28;20501;-84
2022/01/19 08:54:34;;;;;;;6.05;3.92;;;7.80;58.80;;;6.12;64.37;102112.50;8237033;28;20022;-87
2022/01/19 08:58:59;;;;;;;5.53;4.60;;;7.80;58.80;;;6.20;64.13;102123.63;8229884;28;20044;-83
2022/01/19 09:03:21;;;;;;;5.90;4.32;;;7.80;58.90;;;6.16;64.27;102113.34;8255882;28;20407;-81
2022/01/19 09:07:43;;;;;;;4.05;3.58;;;7.80;58.90;;;6.04;64.67;102091.00;8231728;28;20034;-86
2022/01/19 09:12:05;;;;;;;4.80;3.88;;;7.80;59.00;;;6.23;64.28;102119.28;8257040;28;20449;-86
2022/01/19 09:16:27;;;;;;;5.07;3.50;;;7.80;59.00;;;6.24;64.32;102119.28;8248014;28;20415;-82
2022/01/19 09:20:48;;;;;;;4.43;3.55;;;7.80;59.00;;;6.16;64.23;102097.78;8257755;28;20048;-83
2022/01/19 09:25:12;;;;;;;5.20;4.20;;;7.80;58.90;;;6.25;64.38;102101.97;8260277;28;20046;-83
2022/01/19 09:29:42;;;;;;;4.65;3.60;;;7.80;58.90;;;6.23;64.32;102099.38;8264170;28;20438;-84
2022/01/19 09:34:14;;;;;;;5.72;4.43;;;7.90;59.00;;;6.22;64.17;102084.72;8236209;28;20052;-82
2022/01/19 09:38:39;;;;;;;5.78;4.47;;;7.90;59.00;;;6.31;64.34;102081.09;8249513;28;20042;-82
2022/01/19 09:43:01;;;;;;;4.68;3.83;;;7.90;58.90;;;6.32;64.21;102072.44;8269016;28;20050;-81
2022/01/19 09:47:23;;;;;;;5.22;4.38;;;7.90;58.90;;;6.26;64.54;102041.41;8249666;28;20049;-81
2022/01/19 09:51:47;;;;;;;6.28;4.60;;;7.90;58.90;;;6.33;64.53;102043.03;8251892;28;20037;-81
2022/01/19 09:56:09;;;;;;;5.57;4.18;;;8.00;59.00;;;6.35;64.45;102042.13;8257201;28;20052;-81
2022/01/19 10:00:31;;;;;;;6.82;4.00;;;8.00;58.90;;;6.33;64.09;102024.88;8244175;28;20050;-81
2022/01/19 10:04:53;;;;;;;4.57;3.72;;;8.00;58.90;;;6.34;64.83;102008.41;8280113;28;20044;-81
2022/01/19 10:09:29;;;;;;;7.63;4.55;;;8.10;59.00;;;6.54;64.15;102019.31;8252036;28;20503;-81
2022/01/19 10:18:36;;;;;;;6.18;4.05;;;8.20;58.90;;;6.58;64.46;102023.56;8257064;28;20038;-81
2022/01/19 10:22:58;;;;;;;4.40;4.00;;;8.20;58.80;;;6.57;64.11;101998.50;8235620;28;20052;-81
2022/01/19 10:27:42;;;;;;;5.30;3.85;;;8.30;58.90;;;6.61;64.29;102017.47;8265944;28;20039;-80
2022/01/19 10:32:04;;;;;;;5.25;4.20;;;8.10;58.60;;;6.50;64.49;101983.06;8258369;28;20042;-81
2022/01/19 10:36:55;;;;;;;6.03;5.30;;;8.30;58.70;;;6.46;64.82;101987.47;8268064;28;20042;-81
2022/01/19 10:41:18;;;;;;;4.55;3.53;;;8.20;58.60;;;6.55;64.17;102008.06;8273270;28;20053;-80
2022/01/19 10:45:40;;;;;;;5.50;4.10;;;8.20;58.70;;;6.50;64.50;102003.81;8260652;28;20042;-81
2022/01/19 10:50:02;;;;;;;7.05;5.43;;;8.20;58.70;;;6.53;64.67;102009.81;8263930;28;20515;-81
2022/01/19 10:54:27;;;;;;;5.20;4.63;;;8.20;58.70;;;6.48;64.42;102000.41;8267295;28;20034;-81
2022/01/19 10:59:02;;;;;;;5.45;4.90;;;8.20;58.70;;;6.49;64.12;101996.94;8261700;28;20060;-81
2022/01/19 11:03:28;;;;;;;6.03;4.72;;;8.20;58.60;;;6.40;64.09;101972.03;8244764;28;20048;-81
2022/01/19 11:07:50;;;;;;;5.88;5.28;;;8.10;58.50;;;6.37;64.64;101972.03;8232880;28;20517;-80
2022/01/19 11:12:16;;;;;;;5.47;4.90;;;8.10;58.50;;;6.21;64.51;101940.31;8258801;28;20073;-82
2022/01/19 11:16:38;;;;;;;6.15;5.50;;;8.00;58.40;;;6.26;64.79;101948.03;8252169;28;20044;-81
2022/01/19 11:21:05;;;;;;;6.57;5.60;;;7.90;58.40;;;6.19;64.01;101945.56;8250142;28;20068;-80
2022/01/19 11:25:41;;;;;;;6.40;5.70;;;7.80;58.40;;;6.06;64.33;101920.72;8233314;28;20437;-80
2022/01/19 11:30:11;;;;;;;6.22;5.45;;;7.90;58.50;;;6.11;64.07;101915.47;8243067;28;20601;-80
2022/01/19 11:34:48;;;;;;;7.20;5.80;;;7.80;58.60;;;6.00;63.85;101873.31;8252573;28;20060;-81
2022/01/19 11:39:21;;;;;;;6.75;5.63;;;7.70;58.50;;;5.55;64.52;101793.69;8254262;28;20407;-80
2022/01/19 11:43:57;;;;;;;6.95;6.22;;;7.70;58.50;;;6.01;64.20;101864.63;8266850;28;20089;-80
2022/01/19 11:48:23;;;;;;;7.43;5.93;;;7.60;58.50;;;5.97;64.27;101862.09;8248068;28;20043;-81
2022/01/19 11:52:46;;;;;;;8.85;7.22;;;7.60;58.50;;;5.94;63.97;101851.78;8264554;28;20512;-82
2022/01/19 11:57:12;;;;;;;7.80;6.88;;;7.60;58.60;;;5.87;64.33;101820.78;8262072;28;20404;-80
2022/01/19 12:01:35;;;;;;;;;;;7.40;58.50;;;5.90;63.98;101808.63;8250740;28;20061;-81
2022/01/19 12:05:57;;;;;;;7.43;6.65;;;7.50;58.70;;;5.83;64.10;101791.44;8235748;28;19927;-80
2022/01/19 12:10:44;;;;;;;7.78;6.50;;;7.50;58.60;;;5.88;64.15;101781.84;8249928;28;20044;-80
2022/01/19 12:15:09;;;;;;;9.43;7.90;;;7.50;58.70;;;5.94;64.19;101774.03;8255648;28;20042;-80
2022/01/19 12:19:41;;;;;;;11.82;9.02;;;7.50;58.70;;;5.92;64.43;101761.94;8247540;28;20034;-82
2022/01/19 12:24:29;;;;;;;11.23;8.60;;;7.50;58.70;;;5.90;64.72;101745.56;8254789;28;20045;-84
2022/01/19 12:28:53;;;;;;;10.35;8.75;;;7.50;58.70;;;5.80;64.13;101742.25;8260051;28;20034;-85
2022/01/19 12:33:15;;;;;;;9.68;8.07;;;7.50;58.60;;;5.82;64.33;101750.03;8252894;28;20038;-84
2022/01/19 12:37:56;;;;;;;9.52;8.15;;;7.50;58.60;;;5.72;64.64;101707.88;8266419;28;20050;-81
2022/01/19 12:42:24;;;;;;;10.90;9.35;;;7.40;58.50;;;5.79;64.29;101701.69;8241693;28;20057;-81
2022/01/19 12:46:49;;;;;;;15.30;12.00;;;7.40;58.50;;;5.63;64.52;101654.50;8258832;28;20042;-87
2022/01/19 12:51:39;;;;;;;13.13;10.67;;;7.40;58.40;;;5.64;64.49;101666.56;8254951;28;20111;-80
2022/01/19 12:56:09;;;;;;;10.88;9.07;;;7.40;58.50;;;5.70;64.04;101668.19;8208906;28;1009831;-81
2022/01/19 13:00:32;;;;;;;12.07;9.80;;;7.30;58.50;;;5.69;64.09;101645.75;8229011;28;20761;-81
2022/01/19 13:05:05;;;;;;;14.65;10.65;;;7.20;58.50;;;5.62;64.32;101616.53;8260566;28;20570;-82
2022/01/19 13:09:36;;;;;;;12.88;10.40;;;7.30;58.40;;;5.65;64.25;101598.31;8262438;28;20044;-81
2022/01/19 13:14:04;;;;;;;10.93;9.30;;;7.30;58.50;;;5.62;64.39;101610.50;8250363;28;20105;-82
2022/01/19 13:18:43;;;;;;;10.77;8.20;;;7.20;58.50;;;5.46;64.17;101576.28;8243447;28;20120;-82
2022/01/19 13:23:10;;;;;;;8.30;6.82;;;7.20;58.50;;;5.51;64.35;101590.84;8255441;28;20121;-82
2022/01/19 13:27:32;;;;;;;6.45;5.65;;;7.20;58.60;;;5.58;64.25;101598.47;8248322;28;20033;-82
2022/01/19 13:32:19;;;;;;;9.20;7.00;;;7.30;58.70;;;5.64;64.55;101600.94;8255513;28;20036;-82
2022/01/19 13:36:40;;;;;;;8.07;6.40;;;7.30;58.70;;;5.53;64.47;101572.66;8279728;28;20038;-87
2022/01/19 13:41:09;;;;;;;7.43;6.60;;;7.30;58.70;;;5.67;64.27;101599.16;8275237;28;20121;-84
2022/01/19 13:50:02;;;;;;;6.82;5.95;;;7.30;58.70;;;5.62;64.15;101551.75;8234260;28;20118;-82
2022/01/19 13:54:24;;;;;;;6.30;5.70;;;7.20;58.60;;;5.64;64.76;101543.94;8222074;28;20402;-83
2022/01/19 13:58:50;;;;;;;6.47;5.18;;;7.30;58.60;;;5.72;64.64;101549.78;8216865;28;20042;-83
2022/01/19 14:03:11;;;;;;;11.23;6.38;;;7.30;58.60;;;5.68;64.19;101530.03;8266116;28;20045;-81
2022/01/19 14:07:33;;;;;;;19.77;10.15;;;7.30;58.70;;;5.61;64.16;101521.53;8254357;28;20075;-82
2022/01/19 14:12:16;;;;;;;11.80;6.60;;;7.40;58.70;;;5.77;64.14;101535.00;8228215;28;20236;-81
2022/01/19 14:16:45;;;;;;;9.07;6.43;;;7.40;58.70;;;5.74;64.65;101525.56;8270948;28;20046;-81
2022/01/19 14:21:09;;;;;;;6.70;5.60;;;7.40;58.70;;;5.73;64.45;101508.31;8243572;28;20052;-81
2022/01/19 14:25:32;;;;;;;5.45;4.93;;;7.40;58.70;;;5.61;64.28;101468.88;8228184;28;20042;-81
2022/01/19 14:30:03;;;;;;;6.88;5.25;;;7.40;58.60;;;5.74;64.56;101488.44;8244639;28;20037;-82
2022/01/19 14:34:43;;;;;;;4.05;3.75;;;7.40;58.60;;;5.86;64.44;101492.47;8232069;28;20038;-81
2022/01/19 14:39:05;;;;;;;4.47;4.07;;;7.50;58.70;;;5.90;64.20;101473.38;8249966;28;20048;-81
2022/01/19 14:43:52;;;;;;;4.93;4.45;;;7.50;58.60;;;5.89;64.73;101472.53;8250097;28;20052;-81
2022/01/19 14:48:18;;;;;;;5.05;4.65;;;7.50;58.60;;;5.69;64.25;101435.84;8268188;28;20046;-83
2022/01/19 14:52:40;;;;;;;4.28;3.90;;;7.50;58.60;;;5.92;64.43;101467.28;8249350;28;20060;-84
2022/01/19 14:57:03;;;;;;;4.57;4.22;;;7.50;58.60;;;5.86;64.49;101436.31;8236247;28;20033;-85
2022/01/19 15:01:25;;;;;;;4.32;3.97;;;7.60;58.70;;;5.94;63.96;101423.19;8238694;28;20498;-84
2022/01/19 15:05:46;;;;;;;7.15;4.90;;;7.60;58.60;;;5.92;64.48;101412.84;8233227;28;20044;-82
2022/01/19 15:10:09;;;;;;;4.97;4.57;;;7.60;58.60;;;5.85;63.86;101387.94;8243619;28;20046;-84
2022/01/19 15:14:30;;;;;;;4.50;4.10;;;7.60;58.60;;;5.81;64.52;101381.16;8235064;28;20033;-83
2022/01/19 15:18:52;;;;;;;5.50;4.75;;;7.70;58.60;;;5.97;64.09;101403.25;8245292;28;20044;-82
2022/01/19 15:23:14;;;;;;;5.43;4.93;;;7.70;58.60;;;6.04;64.28;101408.25;8248428;28;20042;-84
2022/01/19 15:27:40;;;;;;;5.03;4.40;;;7.70;58.60;;;5.86;64.53;101360.28;8259131;28;20410;-83
2022/01/19 15:32:02;;;;;;;5.22;4.72;;;7.70;58.60;;;5.71;64.45;101318.34;8239476;28;20038;-85
2022/01/19 15:36:24;;;;;;;4.85;4.45;;;7.70;58.60;;;6.10;64.45;101371.81;8234448;28;20488;-84
2022/01/19 15:40:47;;;;;;;4.78;4.35;;;7.70;58.60;;;6.10;64.29;101361.44;8242414;28;20037;-83
2022/01/19 15:45:14;;;;;;;6.15;5.55;;;7.70;58.60;;;6.12;64.17;101347.53;8226499;28;20064;-84
2022/01/19 15:49:36;;;;;;;5.82;5.22;;;7.80;58.60;;;6.10;63.97;101331.19;8243490;28;20038;-82
2022/01/19 15:53:57;;;;;;;6.32;4.57;;;7.80;58.60;;;6.10;64.55;101341.56;8220629;28;20044;-82
2022/01/19 15:58:21;;;;;;;4.43;4.03;;;7.80;58.60;;;6.16;63.82;101348.31;8219279;28;20042;-82
2022/01/19 16:02:44;;;;;;;4.05;3.75;;;7.80;58.60;;;6.12;64.00;101326.78;8235637;28;20033;-81
2022/01/19 16:07:05;;;;;;;4.32;3.78;;;7.80;58.60;;;6.19;64.26;101330.09;8259558;28;20046;-82
2022/01/19 16:11:27;;;;;;;4.15;3.75;;;7.80;58.60;;;6.14;63.86;101318.97;8263072;28;20033;-81
2022/01/19 16:15:49;;;;;;;3.65;3.38;;;7.70;58.60;;;6.15;64.15;101297.34;8258430;28;20034;-81
2022/01/19 16:20:13;;;;;;;3.90;3.60;;;7.80;58.60;;;6.20;64.21;101296.31;8239275;28;20603;-81
2022/01/19 16:29:15;;;;;;;4.00;3.60;;;7.80;58.70;;;6.15;63.96;101266.22;8239393;28;20041;-82
2022/01/19 16:33:38;;;;;;;5.15;4.72;;;7.90;58.70;;;6.19;64.23;101265.25;8225628;28;20399;-82
2022/01/19 16:37:59;;;;;;;4.88;4.38;;;7.90;58.70;;;6.26;64.33;101269.34;8259327;28;20046;-82
2022/01/19 16:42:21;;;;;;;4.70;3.83;;;7.90;58.70;;;6.18;64.28;101255.75;8243509;28;20030;-81
2022/01/19 16:46:45;;;;;;;4.85;4.18;;;7.90;58.70;;;6.19;64.31;101255.72;8242996;28;20060;-83
2022/01/19 16:51:07;;;;;;;5.00;4.50;;;7.90;58.60;;;6.24;64.44;101255.59;8246046;28;20048;-82
2022/01/19 16:55:29;;;;;;;8.82;5.93;;;7.80;58.70;;;6.28;64.22;101257.19;8235096;28;20034;-82
2022/01/19 16:59:50;;;;;;;5.97;5.18;;;7.90;58.60;;;6.24;64.37;101247.81;8274122;28;20042;-83
2022/01/19 17:04:13;;;;;;;5.32;4.82;;;7.90;58.60;;;6.25;64.23;101230.50;8240680;28;20771;-83
2022/01/19 17:08:37;;;;;;;4.80;4.13;;;7.90;58.60;;;6.24;64.04;101226.19;8240492;28;20667;-82
2022/01/19 17:13:09;;;;;;;5.78;5.15;;;7.90;58.60;;;6.26;64.02;101227.00;8243061;28;20042;-83
2022/01/19 17:17:45;;;;;;;5.78;4.65;;;7.90;58.60;;;6.32;63.89;101230.28;8251069;28;20048;-81
2022/01/19 17:22:16;;;;;;;4.32;3.92;;;7.90;58.60;;;6.33;64.13;101215.56;8262559;28;20048;-83
2022/01/19 17:26:38;;;;;;;5.43;4.47;;;8.00;58.60;;;6.28;63.88;101210.53;8230893;28;20035;-82
2022/01/19 17:31:00;;;;;;;5.15;3.75;;;7.90;58.50;;;6.19;64.37;101187.47;8240806;28;20061;-81
2022/01/19 17:35:22;;;;;;;4.22;3.83;;;7.70;58.40;;;6.15;64.20;101178.06;8232726;28;20044;-82
2022/01/19 17:39:44;;;;;;;5.63;5.10;;;7.90;58.50;;;6.30;64.45;101198.38;8226968;28;20048;-82
2022/01/19 17:44:06;;;;;;;5.03;4.55;;;7.90;58.50;;;6.28;64.59;101200.16;8247171;28;20048;-82
2022/01/19 17:48:47;;;;;;;5.00;4.50;;;8.00;58.40;;;6.26;64.65;101183.78;8258032;28;20044;-82
2022/01/19 17:53:08;;;;;;;4.13;3.72;;;7.90;58.40;;;6.22;64.10;101165.78;8242242;28;20038;-82
2022/01/19 17:57:30;;;;;;;4.80;3.67;;;7.90;58.40;;;6.31;63.85;101160.31;8264777;28;20038;-82
2022/01/19 18:01:52;;;;;;;4.50;4.03;;;8.00;58.40;;;6.23;63.98;101149.31;8264204;28;20052;-82
2022/01/19 18:06:14;;;;;;;4.28;3.60;;;7.90;58.30;;;6.31;64.21;101145.59;8246642;28;20050;-83
2022/01/19 18:10:35;;;;;;;5.00;4.05;;;8.00;58.30;;;6.24;64.56;101131.13;8257224;28;20578;-84
2022/01/19 18:14:58;;;;;;;5.13;4.63;;;7.90;58.30;;;6.34;64.15;101132.53;8224242;28;20061;-85
2022/01/19 18:19:19;;;;;;;4.20;3.80;;;8.00;58.30;;;6.38;64.31;101133.28;8211706;28;20044;-83
2022/01/19 18:23:42;;;;;;;4.47;4.07;;;8.00;58.30;;;6.26;64.31;101103.38;8243845;28;20038;-82
2022/01/19 18:28:04;;;;;;;4.78;4.05;;;8.00;58.30;;;6.26;63.96;101118.09;8232606;28;20048;-82
2022/01/19 18:32:26;;;;;;;4.70;4.28;;;8.00;58.20;;;6.30;63.75;101115.38;8251728;28;20034;-83
2022/01/19 18:36:47;;;;;;;5.65;4.72;;;8.00;58.20;;;6.27;64.24;101099.06;8242736;28;20040;-82
2022/01/19 18:41:10;;;;;;;6.55;5.07;;;8.00;58.20;;;6.35;64.02;101110.06;8249153;28;20042;-82
2022/01/19 18:45:33;;;;;;;4.20;3.80;;;7.90;58.20;;;6.28;64.34;101093.81;8239618;28;20042;-82
2022/01/19 18:49:55;;;;;;;5.13;4.47;;;8.00;58.30;;;6.22;63.88;101073.28;8209927;28;20042;-83
2022/01/19 18:54:19;;;;;;;6.35;4.35;;;7.90;58.20;;;6.31;63.97;101079.91;8237347;28;20046;-83
2022/01/19 18:58:42;;;;;;;6.45;4.85;;;8.00;58.20;;;6.37;64.05;101070.19;8263359;28;20052;-82
2022/01/19 19:03:04;;;;;;;5.53;5.03;;;8.00;58.20;;;6.34;64.15;101069.44;8231274;28;20046;-84
2022/01/19 19:07:25;;;;;;;5.88;5.05;;;8.00;58.10;;;6.33;64.04;101058.22;8224692;28;20521;-83
2022/01/19 19:12:04;;;;;;;5.25;4.50;;;8.00;58.10;;;6.29;64.34;101027.22;8228796;28;20034;-83
2022/01/19 19:16:26;;;;;;;4.95;4.10;;;8.00;58.10;;;6.26;64.00;101028.19;8217132;28;20029;-84
2022/01/19 19:20:48;;;;;;;5.32;4.38;;;7.90;58.10;;;6.24;63.84;101013.56;8232191;28;20038;-84
2022/01/19 19:25:15;;;;;;;4.10;3.80;;;8.00;58.10;;;6.36;64.35;101020.94;8225050;28;20517;-83
2022/01/19 19:29:37;;;;;;;4.90;4.50;;;8.00;58.10;;;6.25;64.17;100991.94;8246641;28;20068;-84
2022/01/19 19:34:01;;;;;;;5.03;4.45;;;8.00;57.90;;;6.29;63.86;100994.38;8215960;28;20038;-84
2022/01/19 19:38:22;;;;;;;5.70;5.10;;;8.00;58.00;;;6.31;63.92;100986.53;8246393;28;20033;-84
2022/01/19 19:42:45;;;;;;;4.78;4.25;;;7.90;57.90;;;6.30;63.73;100980.50;8252724;28;20057;-84
2022/01/19 19:47:07;;;;;;;8.60;6.85;;;7.80;57.90;;;6.31;64.23;100989.13;8228300;28;20181;-84
2022/01/19 19:51:29;;;;;;;5.82;5.30;;;7.90;57.70;;;6.28;63.61;100981.47;8254575;28;20173;-84
2022/01/19 19:55:51;;;;;;;5.43;4.90;;;7.90;57.80;;;6.22;64.20;100955.75;8240261;28;20040;-85
2022/01/19 20:00:21;;;;;;;5.35;4.82;;;7.90;57.90;;;6.15;63.69;100958.50;8246950;28;20056;-85
2022/01/19 20:04:43;;;;;;;5.85;5.25;;;7.90;57.90;;;6.14;64.08;100938.69;8237832;28;20046;-84
2022/01/19 20:09:04;;;;;;;6.53;5.93;;;7.80;58.00;;;6.21;63.97;100949.69;8247996;28;20050;-85
2022/01/19 20:13:26;;;;;;;7.82;6.07;;;7.80;58.00;;;6.25;63.44;100956.47;8248713;28;20038;-83